Time;durP1;ratioP1;P1;durP2;ratioP2;P2;SDS_P1;SDS_P2;PMS_P1;PMS_P2;Temp;Humidity;BMP_temperature;BMP_pressure;BME280_temperature;BME280_humidity;BME280_pressure;Samples;Min_cycle;Max_cycle;Signal;HPM_P1;HPM_P2
2023/05/02 00:02:18;;;;;;;5.07;4.57;;;14.30;64.90;;;;;;5015773;28;20833;-64
2023/05/02 00:04:44;;;;;;;6.80;5.87;;;14.20;65.00;;;;;;5018396;28;20226;-65
2023/05/02 00:07:10;;;;;;;8.23;4.90;;;14.20;65.80;;;;;;5014230;28;20202;-65
2023/05/02 00:09:35;;;;;;;7.43;4.33;;;14.20;65.80;;;;;;5015658;28;20740;-65
2023/05/02 00:12:01;;;;;;;5.87;5.10;;;14.20;65.70;;;;;;5016110;28;20197;-65
2023/05/02 00:14:26;;;;;;;5.77;5.00;;;14.20;65.80;;;;;;5014314;28;20230;-65
2023/05/02 00:16:52;;;;;;;7.23;5.17;;;14.20;65.60;;;;;;5018880;28;20207;-65
2023/05/02 00:19:17;;;;;;;5.27;4.77;;;14.10;65.60;;;;;;4994625;28;20187;-65
2023/05/02 00:21:46;;;;;;;6.73;5.03;;;14.10;65.70;;;;;;5014145;28;20223;-69
2023/05/02 00:24:12;;;;;;;6.57;5.37;;;14.00;65.70;;;;;;5015434;28;20198;-65
2023/05/02 00:26:37;;;;;;;11.47;5.10;;;13.90;65.90;;;;;;4996891;28;20695;-66
2023/05/02 00:29:03;;;;;;;7.93;5.07;;;13.80;66.30;;;;;;5015567;28;20202;-65
2023/05/02 00:31:29;;;;;;;6.00;5.40;;;13.90;66.50;;;;;;5016004;28;20514;-67
2023/05/02 00:33:55;;;;;;;5.73;5.20;;;13.90;66.50;;;;;;5015867;28;20199;-65
2023/05/02 00:36:21;;;;;;;6.37;4.90;;;13.90;66.30;;;;;;5013875;28;20716;-66
2023/05/02 00:38:46;;;;;;;5.63;5.13;;;13.70;66.60;;;;;;5015769;28;20188;-66
2023/05/02 00:41:11;;;;;;;6.40;4.33;;;13.70;67.00;;;;;;5016098;28;20614;-66
2023/05/02 00:43:40;;;;;;;7.97;5.07;;;13.60;67.20;;;;;;5015857;28;20287;-67
2023/05/02 00:46:06;;;;;;;5.63;4.73;;;13.60;67.50;;;;;;5015883;28;20302;-67
2023/05/02 00:48:32;;;;;;;6.77;4.63;;;13.50;67.90;;;;;;5000227;28;20238;-67
2023/05/02 00:50:57;;;;;;;10.00;5.30;;;13.40;68.40;;;;;;5023502;28;20297;-66
2023/05/02 00:53:23;;;;;;;5.20;4.67;;;13.30;69.30;;;;;;5019576;28;20377;-67
2023/05/02 00:55:48;;;;;;;6.23;4.90;;;13.30;69.50;;;;;;5019830;28;20761;-66
2023/05/02 00:58:17;;;;;;;7.20;4.80;;;13.50;69.30;;;;;;5001464;28;20199;-66
2023/05/02 01:00:42;;;;;;;6.67;4.93;;;13.50;69.40;;;;;;5018866;28;20246;-65
2023/05/02 01:03:20;;;;;;;11.23;5.60;;;13.50;69.80;;;;;;5018756;28;20761;-66
2023/05/02 01:06:00;;;;;;;6.97;5.50;;;13.30;70.10;;;;;;5019106;28;20298;-65
2023/05/02 01:08:39;;;;;;;9.37;5.70;;;13.40;70.30;;;;;;5019785;28;20195;-65
2023/05/02 01:11:15;;;;;;;5.67;5.10;;;13.30;70.60;;;;;;5019331;28;20272;-65
2023/05/02 01:13:44;;;;;;;7.03;5.40;;;13.30;71.40;;;;;;5019189;28;20557;-65
2023/05/02 01:16:11;;;;;;;8.77;5.23;;;13.30;71.80;;;;;;5019130;28;20580;-66
2023/05/02 01:18:41;;;;;;;6.27;4.80;;;13.30;72.40;;;;;;5018796;28;20206;-65
2023/05/02 01:21:09;;;;;;;8.87;5.50;;;13.20;73.30;;;;;;5016373;28;20231;-66
2023/05/02 01:24:00;;;;;;;7.77;5.17;;;13.20;73.80;;;;;;5018894;28;20199;-65
2023/05/02 01:27:13;;;;;;;6.23;5.63;;;13.20;74.60;;;;;;5019021;28;20199;-65
2023/05/02 01:29:39;;;;;;;6.53;5.23;;;13.20;75.30;;;;;;4950520;28;20224;-65
2023/05/02 01:32:08;;;;;;;6.50;4.63;;;13.20;76.30;;;;;;5007736;28;20230;-65
2023/05/02 01:34:37;;;;;;;7.03;5.27;;;13.10;76.90;;;;;;5000383;28;20684;-66
2023/05/02 01:37:04;;;;;;;5.80;4.70;;;13.10;77.70;;;;;;5018814;28;20223;-67
2023/05/02 01:39:31;;;;;;;7.97;6.07;;;13.10;78.20;;;;;;5016481;28;20203;-67
2023/05/02 01:41:58;;;;;;;9.03;4.67;;;13.10;78.50;;;;;;5018187;28;20227;-66
2023/05/02 01:44:24;;;;;;;5.63;4.90;;;13.00;78.50;;;;;;5018442;28;20195;-66
2023/05/02 01:46:52;;;;;;;5.37;4.87;;;13.00;79.40;;;;;;5018090;28;20278;-67
2023/05/02 01:49:18;;;;;;;5.47;4.60;;;12.90;80.10;;;;;;4995352;28;20282;-66
2023/05/02 01:51:47;;;;;;;6.80;4.93;;;12.80;80.50;;;;;;5013749;28;20202;-65
2023/05/02 01:54:15;;;;;;;4.60;4.20;;;12.80;81.80;;;;;;5018430;28;20551;-66
2023/05/02 01:56:42;;;;;;;5.90;4.80;;;12.70;82.20;;;;;;5017571;28;20677;-66
2023/05/02 01:59:11;;;;;;;6.10;4.47;;;12.70;83.10;;;;;;5016707;28;20210;-70
2023/05/02 02:01:39;;;;;;;6.87;5.23;;;12.60;84.00;;;;;;4996287;28;20202;-65
2023/05/02 02:04:08;;;;;;;5.20;4.70;;;12.60;84.90;;;;;;5012513;28;20204;-66
2023/05/02 02:06:34;;;;;;;6.43;5.03;;;12.50;85.80;;;;;;5018022;28;20226;-66
2023/05/02 02:09:00;;;;;;;8.57;4.83;;;12.40;86.60;;;;;;5018234;28;20302;-65
2023/05/02 02:11:42;;;;;;;5.83;4.60;;;12.40;87.70;;;;;;5015992;28;20206;-66
2023/05/02 02:14:17;;;;;;;5.47;4.63;;;12.40;89.00;;;;;;5018336;28;20195;-66
2023/05/02 02:16:44;;;;;;;5.60;4.50;;;12.30;89.70;;;;;;5009311;28;20233;-66
2023/05/02 02:19:13;;;;;;;6.50;4.57;;;12.20;90.20;;;;;;5018533;28;20195;-65
2023/05/02 02:21:41;;;;;;;5.50;4.43;;;12.20;90.90;;;;;;5017763;28;20253;-66
2023/05/02 02:24:07;;;;;;;5.80;4.47;;;12.10;91.10;;;;;;5016688;28;20207;-66
2023/05/02 02:26:34;;;;;;;6.50;4.13;;;12.10;91.70;;;;;;5021386;28;20199;-66
2023/05/02 02:29:00;;;;;;;4.80;4.13;;;12.00;92.10;;;;;;5009593;28;20203;-66
2023/05/02 02:31:30;;;;;;;5.47;4.97;;;12.00;92.60;;;;;;5016665;28;20658;-67
2023/05/02 02:33:56;;;;;;;5.40;4.90;;;11.90;93.30;;;;;;5005152;28;20203;-66
2023/05/02 02:36:46;;;;;;;5.83;4.70;;;11.90;94.00;;;;;;5006346;28;20224;-66
2023/05/02 02:39:32;;;;;;;4.63;4.23;;;11.80;94.10;;;;;;5006863;28;20236;-66
2023/05/02 02:42:08;;;;;;;4.87;4.23;;;11.80;94.30;;;;;;5007186;28;20266;-66
2023/05/02 02:44:55;;;;;;;4.43;3.70;;;11.70;94.50;;;;;;5007260;28;20282;-67
2023/05/02 02:47:30;;;;;;;5.73;4.37;;;11.70;94.90;;;;;;5005872;28;20334;-67
2023/05/02 02:50:08;;;;;;;4.57;3.77;;;11.70;95.10;;;;;;5007876;28;20199;-66
2023/05/02 02:52:47;;;;;;;3.97;3.67;;;11.70;95.40;;;;;;5005198;28;20214;-67
2023/05/02 02:55:33;;;;;;;8.03;4.07;;;11.60;95.70;;;;;;5014843;28;20658;-66
2023/05/02 02:58:24;;;;;;;4.83;3.83;;;11.70;96.20;;;;;;5003640;28;20204;-66
2023/05/02 03:00:50;;;;;;;5.33;4.03;;;11.60;96.60;;;;;;5006720;28;20258;-67
2023/05/02 03:03:17;;;;;;;5.53;4.57;;;11.50;96.90;;;;;;5009150;28;20230;-67
2023/05/02 03:05:43;;;;;;;4.03;3.60;;;11.40;97.20;;;;;;5008672;28;20232;-66
2023/05/02 03:08:09;;;;;;;6.63;3.47;;;11.40;97.50;;;;;;5004808;28;20560;-67
2023/05/02 03:10:34;;;;;;;4.73;3.87;;;11.40;97.90;;;;;;5010546;28;20198;-66
2023/05/02 03:13:00;;;;;;;7.20;4.30;;;11.40;98.10;;;;;;5006704;28;20211;-65
2023/05/02 03:15:52;;;;;;;7.20;3.77;;;11.40;98.20;;;;;;5006348;28;20574;-65
2023/05/02 03:18:18;;;;;;;4.47;3.90;;;11.40;98.50;;;;;;4988935;28;20204;-66
2023/05/02 03:20:43;;;;;;;4.17;3.40;;;11.30;98.80;;;;;;5006148;28;20335;-66
2023/05/02 03:23:09;;;;;;;4.97;4.27;;;11.30;99.10;;;;;;5006933;28;20231;-66
2023/05/02 03:25:35;;;;;;;6.50;4.23;;;11.30;99.30;;;;;;5009336;28;20197;-67
2023/05/02 03:28:00;;;;;;;4.87;3.97;;;11.40;99.70;;;;;;5010077;28;20207;-73
2023/05/02 03:30:26;;;;;;;8.10;5.23;;;11.30;99.90;;;;;;4986056;28;20224;-71
2023/05/02 03:32:51;;;;;;;4.80;4.40;;;11.30;99.90;;;;;;5006916;28;20296;-72
2023/05/02 03:35:17;;;;;;;7.00;4.37;;;11.20;99.90;;;;;;5006851;28;20213;-69
2023/05/02 03:37:43;;;;;;;5.23;4.70;;;11.10;99.90;;;;;;5005676;28;20583;-70
2023/05/02 03:40:09;;;;;;;7.43;4.80;;;11.10;99.90;;;;;;5006499;28;20215;-69
2023/05/02 03:42:40;;;;;;;10.13;5.00;;;11.00;99.90;;;;;;5006028;28;20198;-71
2023/05/02 03:45:07;;;;;;;6.47;4.50;;;11.00;99.90;;;;;;5006441;28;20260;-70
2023/05/02 03:47:33;;;;;;;6.43;5.23;;;11.00;99.90;;;;;;5005931;28;20217;-71
2023/05/02 03:49:58;;;;;;;5.60;4.53;;;11.00;99.90;;;;;;4986532;28;20203;-70
2023/05/02 03:52:24;;;;;;;4.73;4.20;;;10.90;99.90;;;;;;4993585;28;20198;-71
2023/05/02 03:54:50;;;;;;;5.60;4.40;;;11.00;99.90;;;;;;5015811;28;20198;-71
2023/05/02 03:57:16;;;;;;;5.70;4.00;;;10.90;99.90;;;;;;4999257;28;20999;-71
2023/05/02 03:59:44;;;;;;;7.73;4.17;;;10.90;99.90;;;;;;5015865;28;20296;-71
2023/05/02 04:02:10;;;;;;;5.33;4.20;;;10.90;99.90;;;;;;5013538;28;20195;-71
2023/05/02 04:04:37;;;;;;;6.23;3.73;;;10.80;99.90;;;;;;4997696;28;20610;-71
2023/05/02 04:07:03;;;;;;;6.87;4.30;;;10.80;99.90;;;;;;5015858;28;20906;-71
2023/05/02 04:09:28;;;;;;;4.17;3.77;;;10.80;99.90;;;;;;5015906;28;20214;-70
2023/05/02 04:11:54;;;;;;;6.17;4.63;;;10.80;99.90;;;;;;5015859;28;20202;-70
2023/05/02 04:14:19;;;;;;;4.43;3.57;;;10.80;99.90;;;;;;5013873;28;20214;-72
2023/05/02 04:16:49;;;;;;;5.73;4.10;;;10.90;99.90;;;;;;4998218;28;20219;-71
2023/05/02 04:19:15;;;;;;;4.60;4.07;;;10.90;99.90;;;;;;4997973;28;20874;-71
2023/05/02 04:21:41;;;;;;;5.63;3.67;;;10.90;99.90;;;;;;5013391;28;20229;-71
2023/05/02 04:24:07;;;;;;;4.60;3.80;;;10.90;99.90;;;;;;4998401;28;20236;-71
2023/05/02 04:26:33;;;;;;;4.97;3.27;;;10.80;99.90;;;;;;5005908;28;20219;-71
2023/05/02 04:28:58;;;;;;;4.37;3.77;;;10.90;99.90;;;;;;5015717;28;20229;-71
2023/05/02 04:31:24;;;;;;;6.07;3.70;;;10.90;99.90;;;;;;5007283;28;20961;-71
2023/05/02 04:33:50;;;;;;;6.37;3.27;;;11.00;99.90;;;;;;4986202;28;20215;-70
2023/05/02 04:36:15;;;;;;;5.30;3.50;;;10.90;99.90;;;;;;5005525;28;20297;-70
2023/05/02 04:38:41;;;;;;;6.77;3.37;;;10.90;99.90;;;;;;5003723;28;20245;-70
2023/05/02 04:41:06;;;;;;;7.23;4.00;;;11.00;99.90;;;;;;5005875;28;20198;-70
2023/05/02 04:43:32;;;;;;;6.93;3.60;;;11.00;99.90;;;;;;5005854;28;20188;-69
2023/05/02 04:45:57;;;;;;;9.47;4.60;;;11.00;99.90;;;;;;5006323;28;20244;-69
2023/05/02 04:48:24;;;;;;;4.73;3.90;;;11.00;99.90;;;;;;5006025;28;20202;-69
2023/05/02 04:50:52;;;;;;;7.40;3.87;;;11.10;99.90;;;;;;5003736;28;20224;-69
2023/05/02 04:53:18;;;;;;;7.50;3.40;;;11.10;99.90;;;;;;5005096;28;20308;-70
2023/05/02 04:55:44;;;;;;;6.67;3.53;;;11.20;99.90;;;;;;5005116;28;20251;-70
2023/05/02 04:58:09;;;;;;;5.07;3.63;;;11.20;99.90;;;;;;5005030;28;20280;-71
2023/05/02 05:00:35;;;;;;;7.40;3.90;;;11.20;99.90;;;;;;5007152;28;20539;-72
2023/05/02 05:03:00;;;;;;;5.33;3.00;;;11.10;99.90;;;;;;5001446;28;20200;-71
2023/05/02 05:05:26;;;;;;;4.97;3.23;;;11.10;99.90;;;;;;4988083;28;20291;-72
2023/05/02 05:07:51;;;;;;;10.73;3.80;;;11.10;99.90;;;;;;5003312;28;20218;-71
2023/05/02 05:10:17;;;;;;;7.40;3.97;;;11.10;99.90;;;;;;4999449;28;20194;-71
2023/05/02 05:12:43;;;;;;;4.27;3.33;;;11.00;99.90;;;;;;4988121;28;20554;-71
2023/05/02 05:15:08;;;;;;;5.63;3.87;;;11.00;99.90;;;;;;5004442;28;20213;-75
2023/05/02 05:17:35;;;;;;;6.60;3.30;;;11.00;99.90;;;;;;4987921;28;20201;-72
2023/05/02 05:20:00;;;;;;;4.63;3.43;;;11.00;99.90;;;;;;4986865;28;20205;-72
2023/05/02 05:22:26;;;;;;;4.97;3.87;;;10.90;99.90;;;;;;5005140;28;20230;-71
2023/05/02 05:24:55;;;;;;;4.77;4.03;;;10.90;99.90;;;;;;5005067;28;20209;-71
2023/05/02 05:27:20;;;;;;;4.80;4.33;;;10.90;99.90;;;;;;5003561;28;20207;-71
2023/05/02 05:29:46;;;;;;;6.90;4.50;;;10.80;99.90;;;;;;5005581;28;20657;-70
2023/05/02 05:32:12;;;;;;;7.33;4.27;;;10.90;99.90;;;;;;5005452;28;20904;-73
2023/05/02 05:34:37;;;;;;;5.00;3.87;;;11.00;99.90;;;;;;5008344;28;20289;-71
2023/05/02 05:37:03;;;;;;;6.17;3.93;;;11.00;99.90;;;;;;5009089;28;20703;-71
2023/05/02 05:39:28;;;;;;;4.27;3.63;;;11.00;99.90;;;;;;5009231;28;20206;-72
2023/05/02 05:41:54;;;;;;;5.30;4.40;;;11.10;99.90;;;;;;5006587;28;20228;-70
2023/05/02 05:44:24;;;;;;;7.20;4.90;;;11.10;99.90;;;;;;5008212;28;20201;-70
2023/05/02 05:46:49;;;;;;;5.47;4.60;;;11.20;99.90;;;;;;5008305;28;20210;-70
2023/05/02 05:49:15;;;;;;;6.07;4.83;;;11.20;99.90;;;;;;5007963;28;20199;-70
2023/05/02 05:51:41;;;;;;;8.27;4.87;;;11.20;99.90;;;;;;5008062;28;20213;-69
2023/05/02 05:54:06;;;;;;;6.13;5.53;;;11.30;99.90;;;;;;5015923;28;20204;-71
2023/05/02 05:56:32;;;;;;;7.40;5.67;;;11.30;99.90;;;;;;5017870;28;20634;-70
2023/05/02 05:58:57;;;;;;;7.30;5.20;;;11.40;99.90;;;;;;5018002;28;20202;-70
2023/05/02 06:01:23;;;;;;;9.17;5.27;;;11.40;99.90;;;;;;5019874;28;20211;-69
2023/05/02 06:03:48;;;;;;;8.13;5.43;;;11.30;99.90;;;;;;5016005;28;20218;-69
2023/05/02 06:06:14;;;;;;;6.67;5.97;;;11.40;99.90;;;;;;5006671;28;20206;-73
2023/05/02 06:08:40;;;;;;;9.43;5.60;;;11.50;99.90;;;;;;5016973;28;20196;-70
2023/05/02 06:11:12;;;;;;;7.90;6.13;;;11.60;99.90;;;;;;5017524;28;20210;-70
2023/05/02 06:13:37;;;;;;;8.20;5.67;;;11.60;99.90;;;;;;5017687;28;20233;-70
2023/05/02 06:16:04;;;;;;;7.57;6.00;;;11.60;99.90;;;;;;5016499;28;20300;-71
2023/05/02 06:18:29;;;;;;;9.47;6.70;;;11.60;99.90;;;;;;5017089;28;20209;-70
2023/05/02 06:20:55;;;;;;;10.27;7.30;;;11.70;99.90;;;;;;5016549;28;20314;-70
2023/05/02 06:23:20;;;;;;;13.23;8.03;;;11.70;99.90;;;;;;5017675;28;20610;-71
2023/05/02 06:25:46;;;;;;;8.30;6.77;;;11.70;99.90;;;;;;5017379;28;20194;-71
2023/05/02 06:28:11;;;;;;;10.57;8.87;;;12.00;99.90;;;;;;5017615;28;20963;-70
2023/05/02 06:30:37;;;;;;;11.70;9.83;;;12.10;99.90;;;;;;5015942;28;20202;-72
2023/05/02 06:33:05;;;;;;;13.70;8.80;;;12.00;99.90;;;;;;5017631;28;20214;-72
2023/05/02 06:35:30;;;;;;;11.70;9.50;;;11.90;99.90;;;;;;5017496;28;20207;-73
2023/05/02 06:37:56;;;;;;;10.00;9.00;;;11.80;99.90;;;;;;5017557;28;20191;-72
2023/05/02 06:40:21;;;;;;;15.07;10.17;;;11.80;99.90;;;;;;5017330;28;20380;-73
2023/05/02 06:42:47;;;;;;;14.40;10.50;;;11.80;99.90;;;;;;4997746;28;20214;-74
2023/05/02 06:45:12;;;;;;;13.90;10.43;;;11.90;99.90;;;;;;5016500;28;20203;-69
2023/05/02 06:47:38;;;;;;;12.07;8.97;;;11.90;99.90;;;;;;5017710;28;20205;-70
2023/05/02 06:50:04;;;;;;;12.67;8.07;;;11.90;99.90;;;;;;5017284;28;20558;-69
2023/05/02 06:52:29;;;;;;;14.50;9.90;;;11.70;99.90;;;;;;5016882;28;20199;-70
2023/05/02 06:54:55;;;;;;;9.03;7.90;;;11.70;99.90;;;;;;5014813;28;20209;-71
2023/05/02 06:57:21;;;;;;;12.03;8.17;;;11.80;99.90;;;;;;5017168;28;21077;-72
2023/05/02 06:59:46;;;;;;;13.23;9.10;;;11.90;99.90;;;;;;5016459;28;20219;-69
2023/05/02 07:02:12;;;;;;;9.40;8.40;;;12.00;99.90;;;;;;5015644;28;20207;-70
2023/05/02 07:04:37;;;;;;;11.73;7.80;;;12.20;99.90;;;;;;5016358;28;20561;-71
2023/05/02 07:07:03;;;;;;;13.57;7.03;;;12.50;99.90;;;;;;5015978;28;20305;-75
2023/05/02 07:09:28;;;;;;;7.70;6.90;;;12.80;99.90;;;;;;5002564;28;20222;-77
2023/05/02 07:11:54;;;;;;;9.73;7.80;;;12.90;99.90;;;;;;5016232;28;20206;-77
2023/05/02 07:14:20;;;;;;;13.47;7.10;;;13.10;99.90;;;;;;5016700;28;20212;-78
2023/05/02 07:16:46;;;;;;;7.60;6.87;;;13.20;99.90;;;;;;5016766;28;20302;-77
2023/05/02 07:19:11;;;;;;;14.17;9.40;;;13.20;99.90;;;;;;4996882;28;20300;-75
2023/05/02 07:21:36;;;;;;;8.27;6.97;;;13.10;99.90;;;;;;5015886;28;20224;-75
2023/05/02 07:24:02;;;;;;;7.40;6.40;;;13.20;99.90;;;;;;5016915;28;20202;-74
2023/05/02 07:26:28;;;;;;;9.00;6.53;;;13.40;99.90;;;;;;5016997;28;20483;-80
2023/05/02 07:28:54;;;;;;;9.90;6.53;;;13.30;99.90;;;;;;4997705;28;20204;-73
2023/05/02 07:31:19;;;;;;;9.97;7.00;;;13.40;99.90;;;;;;4998729;28;20853;-74
2023/05/02 07:33:45;;;;;;;8.23;6.57;;;13.40;99.90;;;;;;5016291;28;20211;-76
2023/05/02 07:36:10;;;;;;;6.70;5.70;;;13.30;99.90;;;;;;5016392;28;20227;-73
2023/05/02 07:38:36;;;;;;;5.83;4.93;;;13.30;99.90;;;;;;5016347;28;20199;-74
2023/05/02 07:41:02;;;;;;;6.47;5.43;;;13.40;99.90;;;;;;5016102;28;20731;-73
2023/05/02 07:43:28;;;;;;;6.57;5.27;;;13.40;99.90;;;;;;4996176;28;20298;-74
2023/05/02 07:45:53;;;;;;;9.53;5.93;;;13.20;99.90;;;;;;5016156;28;20207;-74
2023/05/02 07:48:19;;;;;;;11.80;7.23;;;13.20;99.90;;;;;;5016192;28;20206;-74
2023/05/02 07:50:45;;;;;;;7.33;6.50;;;13.20;99.90;;;;;;5015993;28;20253;-75
2023/05/02 07:53:10;;;;;;;7.20;6.50;;;13.20;99.90;;;;;;5015971;28;20210;-74
2023/05/02 07:55:36;;;;;;;8.07;6.50;;;13.30;99.90;;;;;;5013686;28;20222;-70
2023/05/02 07:58:02;;;;;;;8.50;6.07;;;13.20;99.90;;;;;;5015881;28;20338;-75
2023/05/02 08:00:27;;;;;;;9.83;6.60;;;13.10;99.90;;;;;;5014724;28;20191;-75
2023/05/02 08:02:53;;;;;;;10.77;6.30;;;13.20;99.90;;;;;;5012234;28;20256;-77
2023/05/02 08:05:18;;;;;;;6.27;5.60;;;13.30;99.90;;;;;;4989593;28;20792;-76
2023/05/02 08:07:44;;;;;;;6.30;5.53;;;13.40;99.90;;;;;;5003968;28;20273;-73
2023/05/02 08:10:09;;;;;;;6.43;5.27;;;13.50;99.90;;;;;;5005243;28;20199;-73
2023/05/02 08:12:39;;;;;;;6.97;4.67;;;13.50;99.90;;;;;;5005794;28;20677;-73
2023/05/02 08:15:11;;;;;;;5.73;4.67;;;13.60;99.90;;;;;;5006139;28;20192;-73
2023/05/02 08:17:36;;;;;;;5.57;4.37;;;13.70;99.90;;;;;;5002479;28;20559;-73
2023/05/02 08:20:02;;;;;;;10.60;4.93;;;13.60;99.90;;;;;;5006172;28;20204;-71
2023/05/02 08:22:27;;;;;;;5.83;4.40;;;13.70;99.90;;;;;;5006311;28;20672;-75
2023/05/02 08:24:53;;;;;;;4.87;4.00;;;13.70;99.90;;;;;;5006568;28;20531;-73
2023/05/02 08:27:18;;;;;;;3.90;3.50;;;13.60;99.90;;;;;;4987918;28;20195;-75
2023/05/02 08:29:44;;;;;;;4.13;3.07;;;13.60;99.90;;;;;;5011082;28;20210;-75
2023/05/02 08:32:10;;;;;;;4.60;3.77;;;13.60;99.90;;;;;;5005397;28;20645;-73
2023/05/02 08:34:35;;;;;;;6.13;3.37;;;13.70;99.90;;;;;;5006195;28;20208;-78
2023/05/02 08:37:01;;;;;;;3.30;2.97;;;13.80;99.90;;;;;;5005957;28;20304;-72
2023/05/02 08:39:26;;;;;;;4.63;3.90;;;13.70;99.90;;;;;;5004510;28;20690;-77
2023/05/02 08:41:52;;;;;;;4.43;3.53;;;13.80;99.90;;;;;;4989393;28;20211;-75
2023/05/02 08:44:17;;;;;;;3.73;3.43;;;13.80;99.90;;;;;;5006937;28;20199;-78
2023/05/02 08:46:44;;;;;;;3.27;2.97;;;13.80;99.90;;;;;;5006676;28;20266;-74
2023/05/02 08:49:10;;;;;;;3.87;3.37;;;13.80;99.90;;;;;;5013588;28;20261;-76
2023/05/02 08:51:37;;;;;;;3.97;3.37;;;13.80;99.90;;;;;;5010544;28;20674;-74
2023/05/02 08:54:03;;;;;;;3.53;3.17;;;13.80;99.90;;;;;;5014317;28;20203;-74
2023/05/02 08:56:28;;;;;;;4.27;3.50;;;13.60;99.90;;;;;;5011817;28;20208;-74
2023/05/02 08:58:54;;;;;;;3.73;3.07;;;13.60;99.90;;;;;;5012593;28;20227;-76
2023/05/02 09:01:23;;;;;;;3.87;3.47;;;13.60;99.90;;;;;;5013429;28;20658;-72
2023/05/02 09:03:49;;;;;;;4.87;4.13;;;13.60;99.90;;;;;;5013386;28;20214;-71
2023/05/02 09:06:16;;;;;;;2.80;2.60;;;13.80;99.90;;;;;;5010087;28;20204;-76
2023/05/02 09:08:44;;;;;;;4.00;2.97;;;14.00;99.90;;;;;;5009538;28;20652;-76
2023/05/02 09:11:10;;;;;;;3.63;3.33;;;14.10;99.90;;;;;;5010322;28;20296;-75
2023/05/02 09:13:38;;;;;;;4.67;3.50;;;14.30;99.90;;;;;;5007621;28;20246;-76
2023/05/02 09:16:14;;;;;;;3.50;3.20;;;14.20;99.90;;;;;;5014256;28;20365;-74
2023/05/02 09:18:45;;;;;;;4.03;3.63;;;14.00;99.90;;;;;;5019356;28;20207;-73
2023/05/02 09:21:19;;;;;;;4.00;3.60;;;13.80;99.90;;;;;;5019225;28;20313;-79
2023/05/02 09:23:47;;;;;;;3.70;3.40;;;13.60;99.90;;;;;;5020432;28;20210;-80
2023/05/02 09:26:20;;;;;;;4.40;3.27;;;13.40;99.90;;;;;;5013517;28;20291;-74
2023/05/02 09:28:50;;;;;;;3.60;3.27;;;13.30;99.90;;;;;;5014598;28;20207;-76
2023/05/02 09:31:21;;;;;;;7.27;4.37;;;13.10;99.90;;;;;;5015484;28;20204;-76
2023/05/02 09:33:48;;;;;;;5.40;4.33;;;12.90;99.90;;;;;;5016040;28;20223;-78
2023/05/02 09:36:16;;;;;;;7.07;4.50;;;12.90;99.90;;;;;;5020039;28;20215;-79
2023/05/02 09:38:43;;;;;;;6.27;4.67;;;13.00;99.90;;;;;;5018253;28;20221;-74
2023/05/02 09:41:10;;;;;;;4.80;4.30;;;13.10;99.90;;;;;;5019946;28;20203;-75
2023/05/02 09:43:36;;;;;;;4.43;3.30;;;13.10;99.90;;;;;;5017047;28;20256;-75
2023/05/02 09:46:06;;;;;;;7.03;4.43;;;13.30;99.90;;;;;;5023191;28;20211;-81
2023/05/02 09:48:50;;;;;;;3.80;3.30;;;13.40;99.90;;;;;;5025017;28;20200;-75
2023/05/02 09:51:17;;;;;;;3.33;3.03;;;13.70;99.90;;;;;;5032064;28;20203;-84
2023/05/02 09:53:44;;;;;;;3.30;3.00;;;14.00;99.90;;;;;;5022167;28;20210;-84
2023/05/02 09:56:10;;;;;;;3.47;3.17;;;14.20;99.90;;;;;;5012214;28;20259;-83
2023/05/02 09:58:35;;;;;;;3.47;3.03;;;14.60;99.90;;;;;;5020493;28;20215;-84
2023/05/02 10:01:01;;;;;;;5.13;4.63;;;14.60;99.90;;;;;;4994027;28;20199;-76
2023/05/02 10:03:28;;;;;;;5.63;3.63;;;14.30;99.90;;;;;;5009767;28;20725;-75
2023/05/02 10:05:55;;;;;;;5.57;4.17;;;14.00;99.90;;;;;;4993432;28;20207;-76
2023/05/02 10:08:24;;;;;;;3.83;3.50;;;13.80;99.90;;;;;;5015416;28;20203;-82
2023/05/02 10:11:00;;;;;;;3.93;3.53;;;13.70;99.90;;;;;;5021660;28;20230;-84
2023/05/02 10:13:30;;;;;;;5.33;4.30;;;13.70;99.90;;;;;;5025038;28;20206;-83
2023/05/02 10:16:01;;;;;;;4.07;3.67;;;13.60;99.90;;;;;;5020956;28;20295;-82
2023/05/02 10:18:40;;;;;;;7.00;3.97;;;13.40;99.90;;;;;;4999184;28;20192;-82
2023/05/02 10:21:10;;;;;;;3.17;2.87;;;13.40;99.90;;;;;;5029360;28;20225;-81
2023/05/02 10:23:40;;;;;;;3.73;2.63;;;13.30;99.90;;;;;;5022447;28;20209;-84
2023/05/02 10:26:09;;;;;;;3.20;2.60;;;13.20;99.90;;;;;;5001773;28;20206;-82
2023/05/02 10:28:36;;;;;;;4.77;3.33;;;12.90;99.90;;;;;;5020850;28;20256;-81
2023/05/02 10:31:01;;;;;;;4.00;2.87;;;12.60;99.90;;;;;;5012444;28;20194;-82
2023/05/02 10:33:30;;;;;;;3.83;3.13;;;12.40;99.90;;;;;;5016802;28;20217;-82
2023/05/02 10:35:55;;;;;;;3.70;2.93;;;12.30;99.90;;;;;;5018267;28;20228;-81
2023/05/02 10:38:21;;;;;;;2.80;2.40;;;12.20;99.90;;;;;;5017119;28;20558;-83
2023/05/02 10:40:54;;;;;;;3.27;2.87;;;12.10;99.90;;;;;;5019423;28;20204;-82
2023/05/02 10:43:22;;;;;;;5.67;3.13;;;12.10;99.90;;;;;;5006570;28;20253;-83
2023/05/02 10:45:48;;;;;;;6.73;3.23;;;12.20;99.90;;;;;;5022875;28;20282;-83
2023/05/02 10:48:17;;;;;;;4.57;3.17;;;11.90;99.90;;;;;;5022174;28;20215;-84
2023/05/02 10:50:48;;;;;;;5.93;3.37;;;11.90;99.90;;;;;;5019577;28;20221;-81
2023/05/02 10:53:35;;;;;;;8.63;4.00;;;11.70;99.90;;;;;;5014785;28;20199;-81
2023/05/02 10:56:20;;;;;;;7.03;4.27;;;11.50;99.90;;;;;;5020572;28;20215;-82
2023/05/02 10:58:47;;;;;;;10.13;5.37;;;11.20;99.90;;;;;;5014845;28;20199;-82
2023/05/02 11:01:28;;;;;;;12.87;5.27;;;11.20;99.90;;;;;;5013668;28;20237;-82
2023/05/02 11:04:09;;;;;;;12.47;6.63;;;11.30;99.90;;;;;;5000311;28;20922;-83
2023/05/02 11:06:56;;;;;;;12.67;7.30;;;11.10;99.90;;;;;;5015530;28;20197;-85
2023/05/02 11:09:22;;;;;;;9.57;5.93;;;11.00;99.90;;;;;;5014669;28;20201;-81
2023/05/02 11:11:51;;;;;;;13.97;6.17;;;11.10;99.90;;;;;;5015373;28;20281;-84
2023/05/02 11:14:27;;;;;;;10.83;5.13;;;11.20;99.90;;;;;;5013224;28;20201;-83
2023/05/02 11:17:05;;;;;;;9.03;4.70;;;11.30;99.90;;;;;;5015924;28;20762;-82
2023/05/02 11:19:36;;;;;;;8.93;5.07;;;11.30;99.90;;;;;;4992131;28;20197;-82
2023/05/02 11:22:25;;;;;;;14.73;5.90;;;11.20;99.90;;;;;;5010551;28;20229;-82
2023/05/02 11:24:51;;;;;;;9.03;4.43;;;11.20;99.90;;;;;;5010049;28;20201;-82
2023/05/02 11:27:29;;;;;;;8.80;4.43;;;11.40;99.90;;;;;;5019966;28;20218;-83
2023/05/02 11:29:57;;;;;;;6.23;3.90;;;11.80;99.90;;;;;;5013070;28;20262;-81
2023/05/02 11:32:24;;;;;;;8.50;3.40;;;12.10;99.90;;;;;;5014358;28;20299;-82
2023/05/02 11:34:51;;;;;;;9.47;3.80;;;12.20;99.90;;;;;;5017150;28;20227;-82
2023/05/02 11:37:18;;;;;;;11.03;3.77;;;12.30;99.90;;;;;;4992191;28;20271;-83
2023/05/02 11:39:47;;;;;;;6.73;3.20;;;12.40;99.90;;;;;;5010290;28;20207;-82
2023/05/02 11:42:32;;;;;;;4.70;3.30;;;12.60;99.90;;;;;;5014868;28;20199;-81
2023/05/02 11:45:00;;;;;;;5.63;3.30;;;12.40;99.90;;;;;;5009496;28;20227;-83
2023/05/02 11:47:26;;;;;;;4.60;2.83;;;12.30;99.90;;;;;;5010770;28;20202;-82
2023/05/02 11:49:54;;;;;;;6.50;3.57;;;12.30;99.90;;;;;;5017561;28;20211;-82
2023/05/02 11:52:20;;;;;;;6.87;3.33;;;12.30;99.90;;;;;;5010869;28;20757;-81
2023/05/02 11:54:46;;;;;;;5.30;2.57;;;12.30;99.90;;;;;;4993945;28;20234;-82
2023/05/02 11:57:11;;;;;;;4.47;2.47;;;12.10;99.90;;;;;;5010637;28;20304;-84
2023/05/02 11:59:53;;;;;;;5.67;2.80;;;12.10;99.90;;;;;;5022455;28;20210;-84
2023/05/02 12:02:20;;;;;;;7.43;2.87;;;12.10;99.90;;;;;;5026640;28;20280;-83
2023/05/02 12:04:45;;;;;;;6.53;3.10;;;12.10;99.90;;;;;;5014852;28;20349;-82
2023/05/02 12:07:11;;;;;;;5.93;3.07;;;12.30;99.90;;;;;;5021376;28;20292;-81
2023/05/02 12:09:51;;;;;;;8.43;3.50;;;12.60;99.90;;;;;;5016382;28;20252;-76
2023/05/02 12:12:21;;;;;;;7.33;3.17;;;12.70;99.90;;;;;;5017006;28;20207;-84
2023/05/02 12:14:47;;;;;;;3.93;3.57;;;12.80;99.90;;;;;;5015975;28;20199;-85
2023/05/02 12:17:13;;;;;;;5.27;2.90;;;12.70;99.90;;;;;;5007121;28;20355;-85
2023/05/02 12:19:38;;;;;;;4.27;2.83;;;12.60;99.90;;;;;;5019090;28;20204;-72
2023/05/02 12:22:06;;;;;;;8.50;3.27;;;12.80;99.90;;;;;;5008020;28;20310;-79
2023/05/02 12:24:32;;;;;;;11.63;3.83;;;12.90;99.90;;;;;;5013049;28;20215;-79
2023/05/02 12:27:12;;;;;;;10.83;3.67;;;13.00;99.90;;;;;;5018538;28;20745;-79
2023/05/02 12:29:42;;;;;;;6.20;3.23;;;12.80;99.90;;;;;;5012646;28;20197;-77
2023/05/02 12:32:09;;;;;;;7.53;3.37;;;12.80;99.90;;;;;;4993663;28;20676;-79
2023/05/02 12:34:38;;;;;;;8.87;3.20;;;12.80;99.90;;;;;;5017898;28;20224;-77
2023/05/02 12:37:06;;;;;;;8.73;3.97;;;13.10;99.90;;;;;;5015186;28;20223;-78
2023/05/02 12:39:36;;;;;;;8.73;3.47;;;13.10;99.90;;;;;;5015472;28;20560;-72
2023/05/02 12:42:12;;;;;;;12.27;4.57;;;12.90;99.90;;;;;;5005579;28;20208;-76
2023/05/02 12:44:42;;;;;;;7.53;4.30;;;13.20;99.90;;;;;;5002412;28;20245;-76
2023/05/02 12:47:10;;;;;;;12.00;3.70;;;13.40;99.90;;;;;;5020606;28;20199;-78
2023/05/02 12:49:52;;;;;;;7.80;3.20;;;13.40;99.90;;;;;;5015405;28;20206;-72
2023/05/02 12:52:48;;;;;;;12.83;4.53;;;13.70;99.90;;;;;;5021686;28;20192;-71